Time;durP1;ratioP1;P1;durP2;ratioP2;P2;SDS_P1;SDS_P2;PMS_P1;PMS_P2;Temp;Humidity;BMP_temperature;BMP_pressure;BME280_temperature;BME280_humidity;BME280_pressure;Samples;Min_cycle;Max_cycle;Signal;HPM_P1;HPM_P2
2023/08/22 00:00:07;;;;;;;11.35;3.35;;;;;;;26.39;45.23;101805.91;5055616;28;20167;-62
2023/08/22 00:02:33;;;;;;;3.67;2.35;;;;;;;26.37;44.79;101799.78;5054253;28;20524;-62
2023/08/22 00:04:58;;;;;;;4.50;3.15;;;;;;;26.37;45.04;101791.53;5056151;28;20033;-62
2023/08/22 00:07:23;;;;;;;5.25;4.18;;;;;;;26.37;44.62;101788.78;5054117;28;20118;-61
2023/08/22 00:09:49;;;;;;;5.45;3.10;;;;;;;26.35;44.95;101797.25;5055261;28;20488;-61
2023/08/22 00:12:14;;;;;;;4.80;3.30;;;;;;;26.33;45.53;101782.00;5055373;28;20029;-61
2023/08/22 00:14:40;;;;;;;3.13;2.83;;;;;;;26.31;44.84;101781.38;5055282;28;20041;-62
2023/08/22 00:17:08;;;;;;;3.28;2.90;;;;;;;26.29;44.65;101775.25;5055167;28;20040;-62
2023/08/22 00:19:34;;;;;;;5.53;2.63;;;;;;;26.26;44.93;101783.91;5055355;28;20067;-61
2023/08/22 00:22:01;;;;;;;2.78;2.47;;;;;;;26.23;45.09;101776.94;5053886;28;20029;-62
2023/08/22 00:24:26;;;;;;;3.17;2.70;;;;;;;26.19;44.76;101775.66;5053884;28;20512;-62
2023/08/22 00:26:52;;;;;;;5.22;2.83;;;;;;;26.16;44.94;101776.06;5054924;28;20064;-62
2023/08/22 00:29:17;;;;;;;3.80;2.80;;;;;;;26.14;45.23;101777.31;5054755;28;20040;-63
2023/08/22 00:31:42;;;;;;;5.20;2.90;;;;;;;26.09;44.93;101774.31;5054875;28;20049;-62
2023/08/22 00:34:09;;;;;;;7.90;3.20;;;;;;;26.05;44.93;101765.66;5052323;28;20029;-62
2023/08/22 00:36:34;;;;;;;5.13;3.30;;;;;;;26.02;45.04;101769.66;5053599;28;20045;-62
2023/08/22 00:39:00;;;;;;;4.38;2.60;;;;;;;25.99;45.22;101766.50;5054829;28;20065;-62
2023/08/22 00:41:25;;;;;;;4.35;3.30;;;;;;;25.96;44.77;101765.00;5054609;28;20068;-61
2023/08/22 00:43:51;;;;;;;7.22;2.88;;;;;;;25.94;45.61;101755.28;5054564;28;20025;-62
2023/08/22 00:46:16;;;;;;;13.00;3.58;;;;;;;25.88;44.97;101753.38;5054622;28;20532;-62
2023/08/22 00:48:42;;;;;;;5.38;2.30;;;;;;;25.87;45.01;101748.94;5053332;28;20095;-61
2023/08/22 00:51:07;;;;;;;5.18;2.83;;;;;;;25.83;45.08;101750.38;5053444;28;20039;-63
2023/08/22 00:53:33;;;;;;;9.00;3.83;;;;;;;25.79;45.16;101751.88;5054540;28;20037;-62
2023/08/22 00:56:02;;;;;;;4.35;3.35;;;;;;;25.76;45.38;101761.38;5053099;28;20029;-62
2023/08/22 00:58:28;;;;;;;4.47;2.67;;;;;;;25.75;45.62;101759.66;5053114;28;20082;-62
2023/08/22 01:00:53;;;;;;;3.90;2.40;;;;;;;25.72;45.67;101760.06;5054419;28;20037;-62
2023/08/22 01:03:19;;;;;;;8.23;2.67;;;;;;;25.71;45.66;101758.34;5036387;28;20052;-62
2023/08/22 01:05:50;;;;;;;4.50;3.45;;;;;;;25.68;45.34;101756.06;5052921;28;20044;-62
2023/08/22 01:08:19;;;;;;;8.48;3.78;;;;;;;25.67;45.38;101759.00;5052928;28;20025;-62
2023/08/22 01:10:50;;;;;;;3.28;2.78;;;;;;;25.61;45.80;101752.44;5052863;28;20033;-62
2023/08/22 01:13:27;;;;;;;4.53;3.22;;;;;;;25.60;45.66;101752.66;5052490;28;20048;-62
2023/08/22 01:15:53;;;;;;;4.15;2.90;;;;;;;25.57;45.54;101753.91;5052836;28;20469;-61
2023/08/22 01:18:19;;;;;;;5.10;3.10;;;;;;;25.54;45.50;101747.97;5053858;28;20025;-62
2023/08/22 01:20:44;;;;;;;5.50;3.28;;;;;;;25.47;45.57;101742.44;5053068;28;20404;-61
2023/08/22 01:23:10;;;;;;;6.50;2.90;;;;;;;25.46;45.66;101740.72;5053724;28;20118;-61
2023/08/22 01:25:36;;;;;;;3.28;2.72;;;;;;;25.42;45.68;101739.44;5052657;28;20076;-61
2023/08/22 01:28:16;;;;;;;6.65;2.88;;;;;;;25.38;46.03;101743.63;5036051;28;20119;-62
2023/08/22 01:31:01;;;;;;;7.57;2.92;;;;;;;25.34;46.08;101742.34;5035884;28;20056;-62
2023/08/22 01:33:44;;;;;;;6.72;2.88;;;;;;;25.31;45.66;101748.25;5053761;28;20408;-62
2023/08/22 01:36:09;;;;;;;;;;;;;;;25.28;45.96;101744.00;5052789;28;20562;-61
2023/08/22 01:38:35;;;;;;;11.88;2.55;;;;;;;25.25;45.42;101740.81;5052306;28;19913;-61
2023/08/22 01:41:01;;;;;;;3.83;2.30;;;;;;;25.23;46.00;101740.19;5052307;28;20033;-63
2023/08/22 01:43:27;;;;;;;9.85;2.63;;;;;;;25.18;46.18;101739.97;5035589;28;20048;-64
2023/08/22 01:45:52;;;;;;;4.47;2.67;;;;;;;25.13;46.32;101739.69;5053129;28;20037;-61
2023/08/22 01:48:17;;;;;;;7.57;2.60;;;;;;;25.13;45.73;101750.66;5035812;28;20037;-61
2023/08/22 01:50:43;;;;;;;7.10;2.58;;;;;;;25.11;45.87;101750.03;5052071;28;20033;-61
2023/08/22 01:53:09;;;;;;;6.28;2.50;;;;;;;25.09;46.28;101743.91;5051928;28;20519;-61
2023/08/22 01:55:35;;;;;;;2.90;2.58;;;;;;;25.06;46.34;101750.63;5053522;28;20036;-62
2023/08/22 01:58:01;;;;;;;3.47;2.53;;;;;;;25.02;45.77;101738.38;5052024;28;20052;-62
2023/08/22 02:00:26;;;;;;;2.53;2.20;;;;;;;24.99;46.00;101738.75;5052234;28;20178;-61
2023/08/22 02:02:51;;;;;;;5.25;2.40;;;;;;;24.95;46.30;101725.66;5053315;28;20404;-61
2023/08/22 02:05:17;;;;;;;4.82;2.92;;;;;;;24.94;45.98;101726.72;5035343;28;20122;-61
2023/08/22 02:07:43;;;;;;;3.83;2.38;;;;;;;24.92;46.41;101737.03;5053596;28;20037;-63
2023/08/22 02:10:09;;;;;;;5.38;3.63;;;;;;;24.88;46.53;101731.94;5051493;28;20091;-63
2023/08/22 02:12:34;;;;;;;5.65;2.30;;;;;;;24.85;46.17;101743.31;5053470;28;20492;-61
2023/08/22 02:14:59;;;;;;;3.47;2.40;;;;;;;24.84;46.10;101749.88;5051864;28;20431;-62
2023/08/22 02:17:25;;;;;;;8.50;3.08;;;;;;;24.83;46.12;101739.09;5051662;28;20120;-62
2023/08/22 02:19:50;;;;;;;5.75;2.78;;;;;;;24.81;46.30;101742.03;5052772;28;20037;-63
2023/08/22 02:22:15;;;;;;;2.97;2.42;;;;;;;24.78;46.11;101736.94;5051512;28;20052;-62
2023/08/22 02:24:41;;;;;;;3.58;2.20;;;;;;;24.78;46.72;101747.88;5051947;28;20033;-62
2023/08/22 02:27:06;;;;;;;6.00;2.65;;;;;;;24.78;45.83;101747.03;5051668;28;20091;-62
2023/08/22 02:29:32;;;;;;;3.40;2.38;;;;;;;24.76;46.30;101739.00;5052790;28;20043;-62
2023/08/22 02:31:57;;;;;;;6.15;3.20;;;;;;;24.75;46.12;101742.81;5034995;28;20037;-62
2023/08/22 02:34:25;;;;;;;7.25;2.92;;;;;;;24.74;46.83;101735.63;5052937;28;20496;-62
2023/08/22 02:36:50;;;;;;;2.60;2.15;;;;;;;24.74;46.92;101741.09;5053164;28;20037;-62
2023/08/22 02:39:16;;;;;;;3.60;2.22;;;;;;;24.72;46.72;101734.97;5051627;28;20029;-62
2023/08/22 02:41:41;;;;;;;7.50;2.50;;;;;;;24.72;46.93;101736.88;5052517;28;20512;-62
2023/08/22 02:44:06;;;;;;;4.43;2.60;;;;;;;24.66;46.67;101730.28;5051390;28;20044;-61
2023/08/22 02:46:32;;;;;;;8.75;2.85;;;;;;;24.67;47.01;101740.22;5051218;28;20125;-62
2023/08/22 02:48:57;;;;;;;5.55;3.05;;;;;;;24.63;47.40;101727.94;5051499;28;20495;-62
2023/08/22 02:51:23;;;;;;;4.97;2.90;;;;;;;24.62;46.59;101728.97;5052452;28;20029;-62
2023/08/22 02:53:49;;;;;;;5.15;2.78;;;;;;;24.61;46.63;101732.78;5052747;28;20037;-62
2023/08/22 02:56:15;;;;;;;5.22;2.70;;;;;;;24.59;47.15;101737.63;5053128;28;20033;-62
2023/08/22 02:58:41;;;;;;;4.32;2.30;;;;;;;24.60;46.86;101725.59;5056875;28;20040;-61
2023/08/22 03:01:07;;;;;;;12.63;2.63;;;;;;;24.58;47.18;101733.19;5056625;28;20060;-61
2023/08/22 03:03:33;;;;;;;6.22;2.97;;;;;;;24.59;47.09;101731.28;5055434;28;20029;-62
2023/08/22 03:06:00;;;;;;;3.70;2.40;;;;;;;24.57;47.17;101734.22;5056501;28;20040;-61
2023/08/22 03:08:26;;;;;;;5.22;2.72;;;;;;;24.55;47.06;101719.88;5056612;28;20041;-62
2023/08/22 03:10:51;;;;;;;4.70;2.50;;;;;;;24.55;47.04;101730.84;5055363;28;20056;-62
2023/08/22 03:13:17;;;;;;;2.78;2.05;;;;;;;24.55;47.30;101728.09;5054137;28;20040;-62
2023/08/22 03:15:42;;;;;;;7.60;3.17;;;;;;;24.52;47.19;101731.22;5056423;28;20061;-61
2023/08/22 03:18:07;;;;;;;4.72;2.47;;;;;;;24.50;47.53;101727.84;5055209;28;20033;-62
2023/08/22 03:20:33;;;;;;;8.30;3.03;;;;;;;24.48;47.18;101719.00;5056079;28;20532;-61
2023/08/22 03:22:59;;;;;;;6.90;2.38;;;;;;;24.45;47.52;101724.84;5055072;28;20079;-62
2023/08/22 03:25:24;;;;;;;4.90;2.33;;;;;;;24.44;47.15;101728.63;5056375;28;20535;-61
2023/08/22 03:27:50;;;;;;;6.00;3.88;;;;;;;24.46;47.31;101731.16;5038431;28;20120;-61
2023/08/22 03:30:15;;;;;;;3.33;2.00;;;;;;;24.45;47.52;101719.38;5054810;28;20056;-62
2023/08/22 03:32:40;;;;;;;3.70;2.30;;;;;;;24.41;47.55;101718.06;5038178;28;20057;-62
2023/08/22 03:35:08;;;;;;;3.25;2.33;;;;;;;24.42;47.05;101728.00;5053469;28;20455;-61
2023/08/22 03:37:33;;;;;;;7.28;2.78;;;;;;;24.39;47.13;101725.66;5054846;28;20500;-62
2023/08/22 03:39:58;;;;;;;4.93;2.97;;;;;;;24.37;47.47;101715.94;5054881;28;20039;-61
2023/08/22 03:42:24;;;;;;;2.78;2.53;;;;;;;24.36;47.51;101715.09;5055890;28;20519;-62
2023/08/22 03:44:49;;;;;;;3.53;2.78;;;;;;;24.31;47.16;101707.47;5054560;28;20408;-62
2023/08/22 03:47:14;;;;;;;2.65;2.30;;;;;;;24.33;47.25;101718.22;5055864;28;20045;-61
2023/08/22 03:49:40;;;;;;;6.57;2.88;;;;;;;24.32;47.42;101713.78;5056091;28;20033;-62
2023/08/22 03:52:05;;;;;;;4.85;2.50;;;;;;;24.31;47.21;101717.56;5055909;28;20029;-62
2023/08/22 03:54:31;;;;;;;8.23;2.88;;;;;;;24.28;47.53;101715.22;5054654;28;20459;-61
2023/08/22 03:56:56;;;;;;;5.55;2.50;;;;;;;24.26;47.75;101709.09;5056357;28;20048;-62
2023/08/22 03:59:22;;;;;;;5.63;3.28;;;;;;;24.26;47.55;101720.88;5054379;28;20055;-62
2023/08/22 04:01:47;;;;;;;5.38;3.10;;;;;;;24.26;47.85;101726.34;5055648;28;20049;-62
2023/08/22 04:04:14;;;;;;;6.65;3.10;;;;;;;24.25;47.33;101718.34;5055491;28;20037;-62
2023/08/22 04:06:41;;;;;;;6.18;3.15;;;;;;;24.23;47.83;101720.44;5054451;28;20036;-62
2023/08/22 04:09:06;;;;;;;6.75;3.42;;;;;;;24.21;48.20;101728.84;5037235;28;20029;-62
2023/08/22 04:11:32;;;;;;;4.15;2.38;;;;;;;24.21;48.00;101730.72;5054076;28;20029;-62
2023/08/22 04:13:57;;;;;;;3.83;2.85;;;;;;;24.22;48.32;101729.69;5055411;28;20025;-62
2023/08/22 04:16:22;;;;;;;6.22;2.63;;;;;;;24.21;47.58;101733.47;5054151;28;20043;-61
2023/08/22 04:18:48;;;;;;;4.25;3.03;;;;;;;24.20;47.82;101726.31;5055307;28;20033;-61
2023/08/22 04:21:13;;;;;;;5.53;3.17;;;;;;;24.17;48.24;101727.56;5053993;28;20174;-62
2023/08/22 04:23:39;;;;;;;4.88;2.70;;;;;;;24.16;47.85;101735.94;5054897;28;20120;-61
2023/08/22 04:26:04;;;;;;;4.85;2.13;;;;;;;24.16;48.16;101733.22;5053763;28;20497;-62
2023/08/22 04:28:30;;;;;;;4.28;2.05;;;;;;;24.14;47.70;101713.41;5053505;28;20128;-62
2023/08/22 04:30:59;;;;;;;2.90;2.70;;;;;;;24.14;48.26;101727.09;5053837;28;20531;-62
2023/08/22 04:33:25;;;;;;;3.05;2.75;;;;;;;24.10;48.04;101720.31;5055005;28;20037;-62
2023/08/22 04:35:51;;;;;;;5.38;2.65;;;;;;;24.13;47.89;101733.59;5037142;28;20516;-61
2023/08/22 04:38:16;;;;;;;3.72;2.72;;;;;;;24.11;48.30;101727.47;5054901;28;20459;-61
2023/08/22 04:40:45;;;;;;;5.35;2.75;;;;;;;24.13;48.18;101737.19;5055071;28;20056;-62
2023/08/22 04:43:11;;;;;;;6.13;3.00;;;;;;;24.13;47.83;101730.88;5052509;28;20120;-62
2023/08/22 04:45:36;;;;;;;4.80;2.30;;;;;;;24.15;48.22;101736.97;5053619;28;20152;-62
2023/08/22 04:48:02;;;;;;;4.53;2.70;;;;;;;24.18;47.81;101733.84;5052329;28;20033;-61
2023/08/22 04:50:29;;;;;;;7.15;3.00;;;;;;;24.17;48.35;101732.19;5053607;28;20037;-62
2023/08/22 04:52:54;;;;;;;2.85;2.40;;;;;;;24.17;48.31;101729.44;5054804;28;20143;-61
2023/08/22 04:55:20;;;;;;;3.50;2.50;;;;;;;24.20;48.06;101729.06;5054849;28;20064;-62
2023/08/22 04:57:45;;;;;;;4.25;2.97;;;;;;;24.20;48.52;101731.78;5054977;28;20041;-62
2023/08/22 05:00:11;;;;;;;6.07;3.00;;;;;;;24.19;48.05;101727.34;5036673;28;20488;-61
2023/08/22 05:02:36;;;;;;;7.60;3.28;;;;;;;24.20;48.36;101731.78;5054461;28;20037;-61
2023/08/22 05:05:09;;;;;;;9.77;4.55;;;;;;;24.24;48.36;101733.94;5054444;28;20055;-62
2023/08/22 05:07:35;;;;;;;5.30;2.67;;;;;;;24.26;48.13;101737.31;5054631;28;20029;-62
2023/08/22 05:10:02;;;;;;;4.63;3.72;;;;;;;24.31;48.48;101723.06;5053321;28;20037;-63
2023/08/22 05:12:27;;;;;;;6.03;3.85;;;;;;;24.33;48.33;101727.28;5054268;28;20104;-61
2023/08/22 05:14:52;;;;;;;11.43;3.40;;;;;;;24.34;48.15;101723.47;5054359;28;20016;-62
2023/08/22 05:17:18;;;;;;;4.88;3.80;;;;;;;24.40;48.68;101721.03;5054362;28;20025;-61
2023/08/22 05:19:44;;;;;;;6.85;3.63;;;;;;;24.41;48.74;101717.22;5053753;28;20525;-62
2023/08/22 05:22:09;;;;;;;9.57;4.32;;;;;;;24.44;48.71;101722.31;5052847;28;20476;-62
2023/08/22 05:24:36;;;;;;;8.63;3.45;;;;;;;24.46;48.65;101715.56;5054017;28;20098;-62
2023/08/22 05:27:01;;;;;;;5.95;3.92;;;;;;;24.48;48.81;101718.13;5054093;28;20024;-62
2023/08/22 05:29:27;;;;;;;9.45;3.50;;;;;;;24.51;48.29;101724.03;5052877;28;20032;-62
2023/08/22 05:31:53;;;;;;;4.97;3.20;;;;;;;24.55;48.71;101721.75;5036428;28;20483;-62
2023/08/22 05:34:18;;;;;;;5.03;4.07;;;;;;;24.67;48.81;101726.50;5054913;28;20055;-62
2023/08/22 05:36:44;;;;;;;7.40;3.75;;;;;;;24.81;48.40;101717.38;5053562;28;20048;-61
2023/08/22 05:39:10;;;;;;;8.85;5.25;;;;;;;24.97;48.30;101721.69;5055309;28;20484;-62
2023/08/22 05:41:36;;;;;;;7.78;4.13;;;;;;;25.13;48.35;101723.22;5055417;28;20032;-61
2023/08/22 05:44:01;;;;;;;6.47;4.13;;;;;;;25.29;48.29;101720.19;5054589;28;20029;-62
2023/08/22 05:46:26;;;;;;;7.90;4.43;;;;;;;25.44;48.03;101720.88;5051313;28;20045;-62
2023/08/22 05:48:52;;;;;;;8.40;4.78;;;;;;;25.61;48.29;101722.22;5052116;28;20017;-64
2023/08/22 05:51:17;;;;;;;5.00;3.88;;;;;;;25.81;48.10;101728.63;5052045;28;20052;-62
2023/08/22 05:53:43;;;;;;;8.48;4.40;;;;;;;25.96;48.02;101723.81;5052194;28;20504;-62
2023/08/22 05:56:08;;;;;;;8.35;4.15;;;;;;;26.09;47.87;101728.50;5052421;28;20112;-61
2023/08/22 05:58:34;;;;;;;7.22;4.55;;;;;;;26.16;47.70;101731.28;5052506;28;20108;-61
2023/08/22 06:01:09;;;;;;;8.40;3.83;;;;;;;26.25;47.57;101724.50;5052011;28;20507;-61
2023/08/22 06:03:35;;;;;;;9.98;4.70;;;;;;;26.27;48.22;101736.16;5035135;28;20040;-61
2023/08/22 06:06:01;;;;;;;12.32;4.55;;;;;;;26.57;47.20;101731.94;5053033;28;20036;-62
2023/08/22 06:08:27;;;;;;;7.97;4.32;;;;;;;26.81;47.61;101723.06;5051737;28;20041;-61
2023/08/22 06:10:52;;;;;;;5.15;4.07;;;;;;;27.02;47.35;101733.81;5051687;28;20435;-61
2023/08/22 06:13:18;;;;;;;5.95;4.05;;;;;;;27.23;47.27;101735.44;5035077;28;20037;-61
2023/08/22 06:15:43;;;;;;;10.40;4.35;;;;;;;27.46;46.42;101735.81;5051747;28;20377;-62
2023/08/22 06:18:08;;;;;;;10.07;4.90;;;;;;;27.66;46.87;101741.25;5052800;28;20075;-62
2023/08/22 06:20:38;;;;;;;18.80;5.10;;;;;;;27.87;45.89;101738.16;5052952;28;20091;-62
2023/08/22 06:23:03;;;;;;;9.65;5.35;;;;;;;28.05;46.33;101732.78;5035246;28;20386;-62
2023/08/22 06:25:28;;;;;;;8.57;4.38;;;;;;;28.27;45.87;101728.59;5034994;28;20580;-62
2023/08/22 06:27:54;;;;;;;10.95;5.05;;;;;;;28.36;45.61;101731.94;5053118;28;20033;-62
2023/08/22 06:30:19;;;;;;;12.05;4.95;;;;;;;28.47;45.53;101733.13;5052739;28;20504;-62
2023/08/22 06:32:45;;;;;;;11.05;5.07;;;;;;;28.60;46.32;101738.50;5052812;28;20489;-62
2023/08/22 06:35:10;;;;;;;12.43;5.07;;;;;;;28.59;45.96;101726.63;5051322;28;20029;-62
2023/08/22 06:37:35;;;;;;;9.52;5.30;;;;;;;28.57;46.30;101726.00;5034792;28;20088;-62
2023/08/22 06:40:01;;;;;;;10.38;5.22;;;;;;;28.61;45.88;101726.41;5034779;28;20036;-62
2023/08/22 06:42:26;;;;;;;10.45;5.45;;;;;;;28.77;45.21;101723.09;5051531;28;20055;-63
2023/08/22 06:44:52;;;;;;;13.02;5.78;;;;;;;28.93;44.92;101719.75;5052582;28;20029;-62
2023/08/22 06:47:17;;;;;;;9.38;4.45;;;;;;;29.06;44.87;101730.69;5052469;28;20041;-62
2023/08/22 06:49:42;;;;;;;7.00;4.80;;;;;;;29.30;44.65;101735.31;5051628;28;20040;-61
2023/08/22 06:52:08;;;;;;;8.88;4.70;;;;;;;29.42;44.54;101738.16;5051524;28;20091;-63
2023/08/22 06:54:33;;;;;;;6.47;4.65;;;;;;;29.48;44.36;101731.69;5052703;28;20120;-63
2023/08/22 06:56:59;;;;;;;9.45;4.90;;;;;;;29.50;45.11;101742.50;5051575;28;20111;-63
2023/08/22 06:59:24;;;;;;;8.98;4.28;;;;;;;29.49;44.09;101747.16;5051751;28;20025;-64
2023/08/22 07:01:49;;;;;;;12.80;4.57;;;;;;;29.55;44.36;101749.00;5051662;28;20029;-64
2023/08/22 07:04:15;;;;;;;9.15;4.85;;;;;;;29.55;44.74;101749.00;5053240;28;20137;-63
2023/08/22 07:06:40;;;;;;;11.15;4.95;;;;;;;29.60;44.04;101756.59;5052031;28;20099;-61
2023/08/22 07:09:05;;;;;;;14.57;5.47;;;;;;;29.72;44.00;101754.75;5051840;28;20071;-62
2023/08/22 07:11:31;;;;;;;7.30;4.15;;;;;;;30.13;43.35;101757.59;5052888;28;20519;-62
2023/08/22 07:13:56;;;;;;;9.30;4.85;;;;;;;30.38;42.96;101760.22;5051384;28;20025;-62
2023/08/22 07:16:21;;;;;;;6.60;4.57;;;;;;;30.53;43.32;101749.53;5052942;28;20039;-63
2023/08/22 07:18:47;;;;;;;13.13;5.45;;;;;;;30.69;42.87;101761.81;5052736;28;20446;-63
2023/08/22 07:21:12;;;;;;;13.95;5.32;;;;;;;31.01;42.45;101763.22;5051883;28;20029;-62
2023/08/22 07:23:38;;;;;;;7.47;5.63;;;;;;;31.22;42.35;101756.19;5051618;28;20120;-63
2023/08/22 07:26:03;;;;;;;9.82;4.93;;;;;;;31.28;42.21;101756.06;5052501;28;20067;-62
2023/08/22 07:28:29;;;;;;;10.10;5.07;;;;;;;31.19;42.17;101757.50;5052675;28;20112;-62
2023/08/22 07:30:54;;;;;;;12.93;5.13;;;;;;;31.05;42.48;101762.47;5054169;28;20037;-63
2023/08/22 07:33:20;;;;;;;10.48;5.63;;;;;;;31.20;42.12;101761.97;5050911;28;20033;-62
2023/08/22 07:35:46;;;;;;;8.23;4.80;;;;;;;31.35;41.80;101770.59;5034409;28;20029;-62
2023/08/22 07:38:11;;;;;;;7.50;4.55;;;;;;;31.53;42.07;101773.28;5051011;28;20048;-62
2023/08/22 07:40:38;;;;;;;14.13;5.55;;;;;;;31.81;40.85;101778.00;5052390;28;20493;-62
2023/08/22 07:43:04;;;;;;;8.43;4.75;;;;;;;32.08;40.53;101781.06;5052682;28;20026;-64
2023/08/22 07:45:29;;;;;;;15.13;5.18;;;;;;;32.27;40.52;101777.81;5055905;28;21318;-62
2023/08/22 07:47:54;;;;;;;12.77;4.97;;;;;;;32.46;40.78;101786.78;5055694;28;20086;-64
2023/08/22 07:50:20;;;;;;;11.10;5.03;;;;;;;32.68;39.88;101779.41;5037851;28;20110;-62
2023/08/22 07:52:45;;;;;;;13.82;6.00;;;;;;;32.91;40.50;101788.66;5055541;28;20397;-62
2023/08/22 07:55:11;;;;;;;7.53;4.63;;;;;;;33.15;39.19;101770.72;5054421;28;20059;-62
2023/08/22 07:57:36;;;;;;;11.15;4.93;;;;;;;33.44;39.09;101777.81;5055844;28;20512;-62
2023/08/22 08:00:06;;;;;;;7.25;4.70;;;;;;;33.64;39.03;101780.84;5054238;28;20033;-62
2023/08/22 08:02:31;;;;;;;9.73;5.30;;;;;;;33.86;38.71;101792.84;5054264;28;20515;-62
2023/08/22 08:04:57;;;;;;;9.38;5.57;;;;;;;34.08;38.54;101775.31;5054143;28;20040;-62
2023/08/22 08:07:22;;;;;;;9.35;5.75;;;;;;;34.34;37.70;101788.38;5052876;28;20037;-62
2023/08/22 08:09:48;;;;;;;9.75;4.82;;;;;;;34.64;37.84;101794.25;5054263;28;20033;-62
2023/08/22 08:12:13;;;;;;;10.73;4.68;;;;;;;34.95;37.97;101785.00;5054105;28;20116;-63
2023/08/22 08:14:39;;;;;;;16.58;6.03;;;;;;;35.24;37.42;101787.44;5055223;28;20124;-63
2023/08/22 08:17:04;;;;;;;11.98;4.65;;;;;;;35.58;36.62;101805.53;5037415;28;20115;-63
2023/08/22 08:19:29;;;;;;;8.40;4.65;;;;;;;35.82;36.65;101801.16;5037434;28;20112;-63
2023/08/22 08:21:55;;;;;;;13.50;5.55;;;;;;;35.84;36.70;101807.31;5037279;28;20025;-62
2023/08/22 08:24:20;;;;;;;10.32;5.25;;;;;;;35.78;37.19;101805.59;5053812;28;20513;-62
2023/08/22 08:26:45;;;;;;;12.65;5.55;;;;;;;35.98;36.67;101811.28;5037037;28;20091;-63
2023/08/22 08:29:11;;;;;;;11.10;4.82;;;;;;;35.99;36.06;101807.34;5055037;28;20021;-62
2023/08/22 08:31:37;;;;;;;12.23;4.45;;;;;;;35.88;36.63;101800.06;5037342;28;20040;-63
2023/08/22 08:34:02;;;;;;;8.10;4.95;;;;;;;35.79;36.03;101793.34;5036962;28;20401;-62
2023/08/22 08:36:27;;;;;;;8.43;4.22;;;;;;;35.85;35.54;101800.59;5053573;28;20036;-63
2023/08/22 08:38:53;;;;;;;7.55;4.43;;;;;;;35.93;35.98;101797.28;5037276;28;20463;-62
2023/08/22 08:41:20;;;;;;;14.90;5.05;;;;;;;35.86;35.92;101796.72;5053474;28;20123;-63
2023/08/22 08:43:46;;;;;;;10.35;4.82;;;;;;;36.15;35.85;101795.16;5036816;28;20140;-63
2023/08/22 08:46:11;;;;;;;14.73;4.32;;;;;;;36.35;35.13;101804.69;5053227;28;20557;-63
2023/08/22 08:48:38;;;;;;;13.90;5.18;;;;;;;36.62;35.18;101810.88;5054814;28;20119;-62
2023/08/22 08:51:04;;;;;;;7.20;3.75;;;;;;;36.90;34.43;101815.91;5053361;28;20041;-63
2023/08/22 08:53:29;;;;;;;7.70;3.78;;;;;;;37.25;34.67;101795.47;5052876;28;20029;-63
2023/08/22 08:55:55;;;;;;;13.30;4.60;;;;;;;37.65;34.26;101803.75;5036141;28;20040;-63
2023/08/22 08:58:21;;;;;;;9.93;4.28;;;;;;;37.75;33.30;101791.66;5054733;28;20033;-63
2023/08/22 09:00:46;;;;;;;12.02;4.75;;;;;;;37.92;33.30;101792.16;5036655;28;20033;-63
2023/08/22 09:03:12;;;;;;;7.93;3.00;;;;;;;38.02;33.36;101791.28;5053235;28;20044;-63
2023/08/22 09:05:37;;;;;;;7.40;3.20;;;;;;;37.80;33.81;101789.69;5054321;28;20044;-63
2023/08/22 09:08:16;;;;;;;9.90;2.90;;;;;;;37.60;33.46;101795.41;5053081;28;20055;-62
2023/08/22 09:10:41;;;;;;;5.80;2.65;;;;;;;37.47;33.60;101807.16;5032646;28;20068;-61
2023/08/22 09:13:07;;;;;;;4.53;2.38;;;;;;;37.44;33.11;101804.13;5034539;28;20127;-61
2023/08/22 09:15:33;;;;;;;5.75;2.78;;;;;;;37.41;33.18;101801.88;5050040;28;20026;-61
2023/08/22 09:17:58;;;;;;;3.75;1.92;;;;;;;37.25;33.02;101793.50;5033278;28;20041;-62
2023/08/22 09:20:24;;;;;;;6.60;2.20;;;;;;;37.22;33.07;101791.28;5033967;28;20037;-62
2023/08/22 09:22:49;;;;;;;7.15;1.88;;;;;;;37.24;32.66;101777.84;5032896;28;20029;-62
2023/08/22 09:25:16;;;;;;;5.75;2.15;;;;;;;37.22;33.21;101777.28;5020657;28;20042;-62
2023/08/22 09:27:41;;;;;;;3.60;2.10;;;;;;;37.36;33.15;101785.09;5034608;28;20030;-62
2023/08/22 09:30:07;;;;;;;4.80;2.50;;;;;;;37.31;32.70;101781.19;5034192;28;20434;-62
2023/08/22 09:32:32;;;;;;;4.13;1.98;;;;;;;37.27;33.07;101774.47;5034013;28;20087;-62
2023/08/22 09:35:00;;;;;;;5.93;2.05;;;;;;;37.21;32.11;101781.22;5032973;28;20034;-62
2023/08/22 09:37:45;;;;;;;5.38;2.28;;;;;;;37.26;32.23;101781.22;5034292;28;20080;-62
2023/08/22 09:40:10;;;;;;;6.15;2.30;;;;;;;37.37;32.11;101773.63;5034238;28;20580;-62
2023/08/22 09:42:39;;;;;;;4.43;1.48;;;;;;;37.65;31.74;101763.75;5033917;28;20038;-62
2023/08/22 09:45:06;;;;;;;6.55;2.00;;;;;;;37.94;31.55;101775.94;5033609;28;20029;-62
2023/08/22 09:47:32;;;;;;;5.38;1.65;;;;;;;38.19;31.80;101773.00;5042073;28;20045;-62
2023/08/22 09:50:04;;;;;;;8.65;2.95;;;;;;;38.32;31.40;101772.34;5052052;28;20045;-62
2023/08/22 09:52:30;;;;;;;6.53;2.10;;;;;;;38.18;31.78;101768.50;5052266;28;20048;-62
2023/08/22 09:54:56;;;;;;;2.67;1.77;;;;;;;38.19;32.04;101774.94;5052378;28;20037;-62
2023/08/22 09:57:25;;;;;;;6.15;1.98;;;;;;;38.34;31.62;101767.28;5053722;28;20029;-62
2023/08/22 09:59:51;;;;;;;4.85;1.75;;;;;;;38.48;30.66;101767.47;5052083;28;20500;-62
2023/08/22 10:02:19;;;;;;;10.15;3.00;;;;;;;38.50;30.70;101764.38;5052293;28;20048;-62
2023/08/22 10:04:46;;;;;;;4.72;1.80;;;;;;;38.45;30.97;101771.69;5052004;28;20087;-62
2023/08/22 10:07:13;;;;;;;6.05;1.70;;;;;;;38.40;31.94;101782.94;5051718;28;20060;-62
2023/08/22 10:09:40;;;;;;;4.80;1.90;;;;;;;38.41;31.02;101773.41;5052309;28;20090;-62
2023/08/22 10:12:08;;;;;;;7.05;1.80;;;;;;;38.17;30.70;101772.41;5050677;28;20125;-62
2023/08/22 10:14:37;;;;;;;4.50;1.77;;;;;;;38.13;31.03;101776.94;5053602;28;20037;-62
2023/08/22 10:17:02;;;;;;;2.10;1.50;;;;;;;37.97;31.02;101775.34;5036194;28;20095;-62
2023/08/22 10:19:29;;;;;;;5.90;1.80;;;;;;;37.75;32.03;101777.69;5052926;28;20499;-62
2023/08/22 10:22:05;;;;;;;5.82;2.25;;;;;;;37.66;31.04;101777.44;5035139;28;20116;-62
2023/08/22 10:24:31;;;;;;;5.13;2.17;;;;;;;37.52;31.55;101778.38;5052038;28;20103;-62
2023/08/22 10:27:00;;;;;;;3.28;1.83;;;;;;;37.38;32.08;101774.47;5051464;28;20033;-63
2023/08/22 10:29:30;;;;;;;10.95;2.80;;;;;;;37.43;32.27;101788.47;5051603;28;20037;-63
2023/08/22 10:32:01;;;;;;;6.05;1.65;;;;;;;37.36;31.71;101787.91;5035807;28;20055;-62
2023/08/22 10:34:36;;;;;;;4.15;2.40;;;;;;;37.25;32.33;101776.72;5052908;28;20064;-62
2023/08/22 10:37:05;;;;;;;6.53;2.50;;;;;;;37.05;32.61;101782.34;5053054;28;20036;-62
2023/08/22 10:39:38;;;;;;;7.70;2.33;;;;;;;36.86;32.59;101778.44;5035404;28;20508;-63
2023/08/22 10:42:22;;;;;;;4.40;2.65;;;;;;;36.75;33.02;101776.78;5052920;28;20033;-63
2023/08/22 10:44:48;;;;;;;7.50;2.42;;;;;;;36.69;33.19;101772.31;5034793;28;20090;-63
2023/08/22 10:47:27;;;;;;;4.68;2.17;;;;;;;36.66;32.88;101778.47;5052436;28;20041;-63
2023/08/22 10:49:55;;;;;;;3.67;2.33;;;;;;;36.53;32.96;101774.28;5052582;28;20082;-63
2023/08/22 10:52:34;;;;;;;6.78;2.70;;;;;;;36.57;33.01;101766.19;5050592;28;20050;-63
2023/08/22 10:55:02;;;;;;;6.80;2.28;;;;;;;36.61;32.83;101772.88;5052535;28;20103;-63
2023/08/22 10:57:35;;;;;;;7.07;2.30;;;;;;;36.50;33.00;101774.84;5051681;28;20037;-63
2023/08/22 11:00:07;;;;;;;4.70;2.28;;;;;;;36.46;33.26;101784.03;5035970;28;20090;-63
2023/08/22 11:02:34;;;;;;;6.53;2.60;;;;;;;36.38;33.12;101781.78;5053125;28;20040;-63
2023/08/22 11:05:01;;;;;;;2.92;1.95;;;;;;;36.37;33.18;101774.53;5034983;28;20083;-64
2023/08/22 11:07:28;;;;;;;9.40;2.20;;;;;;;36.42;33.02;101778.16;5018281;28;20040;-63
2023/08/22 11:09:53;;;;;;;2.85;1.95;;;;;;;36.47;33.28;101785.69;5051251;28;20112;-62
2023/08/22 11:12:27;;;;;;;5.65;2.10;;;;;;;36.60;32.79;101790.78;5051222;28;20025;-63
2023/08/22 11:14:53;;;;;;;4.22;2.20;;;;;;;37.53;32.81;101783.66;5034543;28;20079;-63
2023/08/22 11:17:20;;;;;;;3.33;1.85;;;;;;;38.39;31.36;101781.25;5051813;28;20400;-63
2023/08/22 11:19:47;;;;;;;3.88;2.10;;;;;;;39.22;30.49;101769.03;5056187;28;20502;-64